Airfield :
LOGIN :

Register | Disclaimer

   EN    FR    IT 

 










Legend :    VFR   Marginal VFR   IFR   Intensive IFR   Very Intensive IFR
Visi :
Ceiling :
>= 8 km
>= 3000ft
5 to 8 km
1000 to 3000 ft
1500m to 5 km
500 to 1000 ft
800 to 1500m
200 to 500 ft
< 800m
< 200 ft
Symbols :   Thunderstorms  Fog  Heavy snow  Heavy precipitations  Wind > 20 kt
SIGMETs :     Misc.  Thunderstorms  Icing  Turbulence  Mountain Waves  Volcanic Ashes







- Airport Elevation : 645 ft
- IATA code : DLE
- Download approach charts


LFGJ - Dole Tavaux

CURRENT METAR :
  • 200900Z AUTO 24006KT 0600 0550 R05/0800N FG VV/// 01/01 Q1026 NOSIG

EXPIRED METARs :
  • 200830Z AUTO 22006KT 0500 R05/0650N FG VV/// 01/01 Q1026 NOSIG
  • 200800Z AUTO 25005KT 0500 0450 R05/0600N FG VV/// 01/01 Q1026 NOSIG
  • 200730Z AUTO 25005KT 210V270 0500 0450 R05/0550N FG VV/// 01/01 Q1026 NOSIG
  • 200700Z AUTO 22006KT 0700 0550 R05/0700D FG VV/// 01/01 Q1025 TEMPO 0400 FG
  • 200630Z AUTO 24004KT 180V280 0900 0800 R05/1000D FG VV/// 02/02 Q1026 TEMPO 0400 FG

TAF TAF LFGJ
Valid from the 20 at 09:00 until the 20 at 18:00 UTC


200800Z 2009/2018 21005KT 3000 BR OVC003
TEMPO 2009/2011 0400 FG VV///
BECMG 2011/2013 8000 NSW OVC006
PROB40 2015/2018 BKN012
No reported NOTAMs for that airfield.



MET'MAP, your aeronautical weather chart ! - Copyright ORBIFLY December 2007 - Disclaimer

ORBIFLY MET'MAP TEAM :

Programming & Development : Alexandra Zaïnal
Concept & Development : Baudouin d'Aumeries
Co-Development & Prog : Marc-Olivier Méhu
Technical & hardware support : Manuel Goepfert

Contact : metmap@orbifly.com




SOURCES & CREDITS :

   NOAA